Main page
METAR-TAF:

METAR-TAF

Airports :

Bartolomeu Lysandro Airport

Campos dos Goytacazes, Rio de Janeiro, Brazil

latitude: 21-45S, longitude: 041-20W, elevation: 11 m

Current weather observation

The report was made 24 minutes ago, at 15:00 UTC
Wind 18 kt from the East/Northeast
Temperature 30°C
Humidity 59%
Pressure 1014 hPa
Visibility 10 km or more
Scattered clouds at a height of 2000 ft

METAR: SBCP 181500Z 06018KT 9999 SCT020 30/21 Q1014

Time: 13:24 (15:24 UTC)

Forecast

The report was made 6 hours and 54 minutes ago, at 08:30 UTC
Forecast valid from 18 at 12 UTC to 18 at 24 UTC
Wind 10 kt from the West/Southwest
Visibility 10 km or more
Scattered clouds at a height of 2000 ft
Becoming
from 18 at 15 UTC to 18 at 17 UTC
Wind 10 kt from the East/Northeast
Becoming
from 18 at 21 UTC to 18 at 23 UTC
Wind 10 kt from the East/Southeast
Few clouds at a height of 2000 ft

TAF: SBCP 180830Z 1812/1824 24010KT 9999 SCT020 TX30/1817Z TN24/1822Z BECMG 1815/1817 07010KT BECMG 1821/1823 12010KT FEW020 RMK PGY

Weather observations and forecasts of more than 4000 airports (METAR and TAF reports).

The available stations are represented by yellow and red dots on the map.

Hover mouse over dot to see the name of the station.

Then click to see weather observations and forecasts.

To change the map : click on the green buttons with a black cross to zoom in, on the green button with a dash to zoom out, or on the green arrows for adjacent maps.


METAR-TAF: